Terminal Aerodrome Forecast
Issued by NWS

Home | Current Version | Previous Version | Text Only | Print | Product List | Glossary On
Versions: 1 2 3 4 5 6 7 8 9 10 11 12 13 14
133
FTUS44 KLZK 211842 AAA
TAFBPK
TAF AMD
KBPK 211842Z 2119/2218 14010G18KT P6SM VCSH BKN100
     FM220000 10008KT P6SM -TSRA BKN040CB OVC100
      TEMPO 2201/2205 5SM BR BKN030
     FM220600 11008KT 4SM SHRA BR VCTS BKN015 OVC035CB
     FM221300 08007KT 5SM -SHRA BR BKN020 OVC035=

USA.gov is the U.S. government's official web portal to all federal, state and local government web resources and services.